sensor_id;sensor_type;location;lat;lon;timestamp;P1;durP1;ratioP1;P2;durP2;ratioP2
38264;SDS011;24062;47.480;8.768;2022-12-07T00:01:05;3.13;;;2.10;;
38264;SDS011;24062;47.480;8.768;2022-12-07T00:03:33;2.80;;;2.17;;
38264;SDS011;24062;47.480;8.768;2022-12-07T00:06:00;2.63;;;1.90;;
38264;SDS011;24062;47.480;8.768;2022-12-07T00:08:29;3.50;;;1.97;;
38264;SDS011;24062;47.480;8.768;2022-12-07T00:11:00;2.67;;;1.77;;
38264;SDS011;24062;47.480;8.768;2022-12-07T00:13:28;2.77;;;1.63;;
38264;SDS011;24062;47.480;8.768;2022-12-07T00:15:55;2.63;;;1.60;;
38264;SDS011;24062;47.480;8.768;2022-12-07T00:18:25;3.20;;;2.00;;
38264;SDS011;24062;47.480;8.768;2022-12-07T00:20:52;2.97;;;1.90;;
38264;SDS011;24062;47.480;8.768;2022-12-07T00:23:24;3.63;;;1.60;;
38264;SDS011;24062;47.480;8.768;2022-12-07T00:25:53;2.33;;;1.93;;
38264;SDS011;24062;47.480;8.768;2022-12-07T00:28:19;2.30;;;1.60;;
38264;SDS011;24062;47.480;8.768;2022-12-07T00:30:46;2.13;;;1.83;;
38264;SDS011;24062;47.480;8.768;2022-12-07T00:33:13;2.43;;;1.60;;
38264;SDS011;24062;47.480;8.768;2022-12-07T00:35:40;2.60;;;1.90;;
38264;SDS011;24062;47.480;8.768;2022-12-07T00:38:07;1.90;;;1.20;;
38264;SDS011;24062;47.480;8.768;2022-12-07T00:40:34;2.43;;;1.73;;
38264;SDS011;24062;47.480;8.768;2022-12-07T00:43:02;2.20;;;1.50;;
38264;SDS011;24062;47.480;8.768;2022-12-07T00:45:29;2.57;;;1.73;;
38264;SDS011;24062;47.480;8.768;2022-12-07T00:47:56;2.17;;;1.63;;
38264;SDS011;24062;47.480;8.768;2022-12-07T00:50:23;2.20;;;1.37;;
38264;SDS011;24062;47.480;8.768;2022-12-07T00:52:50;3.90;;;1.90;;
38264;SDS011;24062;47.480;8.768;2022-12-07T00:55:16;2.80;;;1.90;;
38264;SDS011;24062;47.480;8.768;2022-12-07T00:57:43;2.23;;;1.50;;
38264;SDS011;24062;47.480;8.768;2022-12-07T01:00:12;2.50;;;1.33;;
38264;SDS011;24062;47.480;8.768;2022-12-07T01:02:39;2.10;;;1.53;;
38264;SDS011;24062;47.480;8.768;2022-12-07T01:05:06;2.20;;;1.63;;
38264;SDS011;24062;47.480;8.768;2022-12-07T01:07:34;2.20;;;1.60;;
38264;SDS011;24062;47.480;8.768;2022-12-07T01:10:01;2.10;;;1.60;;
38264;SDS011;24062;47.480;8.768;2022-12-07T01:12:28;3.50;;;1.77;;
38264;SDS011;24062;47.480;8.768;2022-12-07T01:14:55;5.73;;;1.60;;
38264;SDS011;24062;47.480;8.768;2022-12-07T01:17:23;2.10;;;1.50;;
38264;SDS011;24062;47.480;8.768;2022-12-07T01:19:50;2.47;;;1.87;;
38264;SDS011;24062;47.480;8.768;2022-12-07T01:22:17;2.10;;;1.70;;
38264;SDS011;24062;47.480;8.768;2022-12-07T01:24:44;3.43;;;1.53;;
38264;SDS011;24062;47.480;8.768;2022-12-07T01:27:11;2.30;;;1.70;;
38264;SDS011;24062;47.480;8.768;2022-12-07T01:29:38;2.50;;;1.90;;
38264;SDS011;24062;47.480;8.768;2022-12-07T01:32:05;2.97;;;1.70;;
38264;SDS011;24062;47.480;8.768;2022-12-07T01:34:34;3.50;;;1.80;;
38264;SDS011;24062;47.480;8.768;2022-12-07T01:37:01;2.70;;;1.60;;
38264;SDS011;24062;47.480;8.768;2022-12-07T01:39:28;1.90;;;1.10;;
38264;SDS011;24062;47.480;8.768;2022-12-07T01:41:55;2.10;;;1.63;;
38264;SDS011;24062;47.480;8.768;2022-12-07T01:44:22;2.17;;;1.37;;
38264;SDS011;24062;47.480;8.768;2022-12-07T01:46:52;2.10;;;1.60;;
38264;SDS011;24062;47.480;8.768;2022-12-07T01:49:22;2.30;;;1.37;;
38264;SDS011;24062;47.480;8.768;2022-12-07T01:51:56;1.90;;;1.33;;
38264;SDS011;24062;47.480;8.768;2022-12-07T01:54:29;2.50;;;1.53;;
38264;SDS011;24062;47.480;8.768;2022-12-07T01:56:57;2.80;;;1.70;;
38264;SDS011;24062;47.480;8.768;2022-12-07T01:59:25;1.80;;;1.20;;
38264;SDS011;24062;47.480;8.768;2022-12-07T02:01:53;2.20;;;1.37;;
38264;SDS011;24062;47.480;8.768;2022-12-07T02:04:21;1.90;;;1.20;;
38264;SDS011;24062;47.480;8.768;2022-12-07T02:06:49;2.50;;;1.37;;
38264;SDS011;24062;47.480;8.768;2022-12-07T02:09:19;2.00;;;1.57;;
38264;SDS011;24062;47.480;8.768;2022-12-07T02:11:45;2.23;;;1.67;;
38264;SDS011;24062;47.480;8.768;2022-12-07T02:14:12;1.63;;;1.13;;
38264;SDS011;24062;47.480;8.768;2022-12-07T02:16:43;2.30;;;1.23;;
38264;SDS011;24062;47.480;8.768;2022-12-07T02:19:24;2.30;;;1.63;;
38264;SDS011;24062;47.480;8.768;2022-12-07T02:22:18;2.10;;;1.60;;
38264;SDS011;24062;47.480;8.768;2022-12-07T02:25:02;2.23;;;1.40;;
38264;SDS011;24062;47.480;8.768;2022-12-07T02:27:37;1.80;;;1.20;;
38264;SDS011;24062;47.480;8.768;2022-12-07T02:30:10;2.00;;;1.30;;
38264;SDS011;24062;47.480;8.768;2022-12-07T02:32:41;1.80;;;1.30;;
38264;SDS011;24062;47.480;8.768;2022-12-07T02:35:13;2.00;;;1.30;;
38264;SDS011;24062;47.480;8.768;2022-12-07T02:37:47;2.00;;;1.30;;
38264;SDS011;24062;47.480;8.768;2022-12-07T02:40:22;2.13;;;1.40;;
38264;SDS011;24062;47.480;8.768;2022-12-07T02:43:00;1.97;;;1.20;;
38264;SDS011;24062;47.480;8.768;2022-12-07T02:45:32;1.80;;;1.07;;
38264;SDS011;24062;47.480;8.768;2022-12-07T02:48:03;2.10;;;1.37;;
38264;SDS011;24062;47.480;8.768;2022-12-07T02:50:31;2.40;;;1.63;;
38264;SDS011;24062;47.480;8.768;2022-12-07T02:52:58;1.90;;;1.10;;
38264;SDS011;24062;47.480;8.768;2022-12-07T02:55:26;1.70;;;1.10;;
38264;SDS011;24062;47.480;8.768;2022-12-07T02:58:02;1.80;;;1.10;;
38264;SDS011;24062;47.480;8.768;2022-12-07T03:00:42;2.27;;;1.40;;
38264;SDS011;24062;47.480;8.768;2022-12-07T03:03:18;1.90;;;1.13;;
38264;SDS011;24062;47.480;8.768;2022-12-07T03:05:58;2.00;;;1.40;;
38264;SDS011;24062;47.480;8.768;2022-12-07T03:08:34;1.97;;;1.50;;
38264;SDS011;24062;47.480;8.768;2022-12-07T03:11:06;1.83;;;1.30;;
38264;SDS011;24062;47.480;8.768;2022-12-07T03:13:37;1.87;;;1.30;;
38264;SDS011;24062;47.480;8.768;2022-12-07T03:16:11;2.00;;;1.13;;
38264;SDS011;24062;47.480;8.768;2022-12-07T03:18:43;2.30;;;1.57;;
38264;SDS011;24062;47.480;8.768;2022-12-07T03:21:14;1.97;;;1.43;;
38264;SDS011;24062;47.480;8.768;2022-12-07T03:23:44;1.80;;;1.10;;
38264;SDS011;24062;47.480;8.768;2022-12-07T03:26:15;2.13;;;1.40;;
38264;SDS011;24062;47.480;8.768;2022-12-07T03:28:45;2.10;;;1.43;;
38264;SDS011;24062;47.480;8.768;2022-12-07T03:31:18;1.80;;;1.30;;
38264;SDS011;24062;47.480;8.768;2022-12-07T03:33:49;1.90;;;1.20;;
38264;SDS011;24062;47.480;8.768;2022-12-07T03:36:23;2.20;;;1.10;;
38264;SDS011;24062;47.480;8.768;2022-12-07T03:38:56;1.80;;;1.40;;
38264;SDS011;24062;47.480;8.768;2022-12-07T03:41:27;2.00;;;1.37;;
38264;SDS011;24062;47.480;8.768;2022-12-07T03:43:55;2.13;;;1.20;;
38264;SDS011;24062;47.480;8.768;2022-12-07T03:46:27;1.80;;;1.07;;
38264;SDS011;24062;47.480;8.768;2022-12-07T03:49:03;1.87;;;1.23;;
38264;SDS011;24062;47.480;8.768;2022-12-07T03:51:36;1.80;;;1.00;;
38264;SDS011;24062;47.480;8.768;2022-12-07T03:54:09;1.77;;;1.17;;
38264;SDS011;24062;47.480;8.768;2022-12-07T03:56:40;1.77;;;1.00;;
38264;SDS011;24062;47.480;8.768;2022-12-07T03:59:09;1.80;;;1.10;;
38264;SDS011;24062;47.480;8.768;2022-12-07T04:01:39;1.97;;;0.80;;
38264;SDS011;24062;47.480;8.768;2022-12-07T04:04:08;1.73;;;1.00;;
38264;SDS011;24062;47.480;8.768;2022-12-07T04:06:35;2.20;;;1.27;;
38264;SDS011;24062;47.480;8.768;2022-12-07T04:09:02;1.97;;;1.27;;
38264;SDS011;24062;47.480;8.768;2022-12-07T04:11:29;1.70;;;1.07;;
38264;SDS011;24062;47.480;8.768;2022-12-07T04:13:56;3.30;;;1.20;;
38264;SDS011;24062;47.480;8.768;2022-12-07T04:16:42;1.83;;;1.10;;
38264;SDS011;24062;47.480;8.768;2022-12-07T04:19:08;1.40;;;0.77;;
38264;SDS011;24062;47.480;8.768;2022-12-07T04:21:35;1.70;;;1.00;;
38264;SDS011;24062;47.480;8.768;2022-12-07T04:24:02;1.80;;;1.10;;
38264;SDS011;24062;47.480;8.768;2022-12-07T04:26:30;1.80;;;1.10;;
38264;SDS011;24062;47.480;8.768;2022-12-07T04:28:57;1.63;;;1.00;;
38264;SDS011;24062;47.480;8.768;2022-12-07T04:31:24;1.80;;;1.00;;
38264;SDS011;24062;47.480;8.768;2022-12-07T04:33:52;1.80;;;0.80;;
38264;SDS011;24062;47.480;8.768;2022-12-07T04:36:19;1.90;;;1.10;;
38264;SDS011;24062;47.480;8.768;2022-12-07T04:38:46;1.70;;;0.97;;
38264;SDS011;24062;47.480;8.768;2022-12-07T04:41:13;1.70;;;1.00;;
38264;SDS011;24062;47.480;8.768;2022-12-07T04:43:40;1.67;;;0.97;;
38264;SDS011;24062;47.480;8.768;2022-12-07T04:46:07;1.53;;;0.90;;
38264;SDS011;24062;47.480;8.768;2022-12-07T04:48:34;1.60;;;0.80;;
38264;SDS011;24062;47.480;8.768;2022-12-07T04:51:03;1.97;;;1.10;;
38264;SDS011;24062;47.480;8.768;2022-12-07T04:53:30;1.77;;;1.23;;
38264;SDS011;24062;47.480;8.768;2022-12-07T04:55:57;1.80;;;1.10;;
38264;SDS011;24062;47.480;8.768;2022-12-07T04:58:26;2.07;;;1.07;;
38264;SDS011;24062;47.480;8.768;2022-12-07T05:00:53;1.80;;;1.00;;
38264;SDS011;24062;47.480;8.768;2022-12-07T05:03:21;1.80;;;1.00;;
38264;SDS011;24062;47.480;8.768;2022-12-07T05:05:48;2.80;;;1.00;;
38264;SDS011;24062;47.480;8.768;2022-12-07T05:08:16;1.80;;;1.00;;
38264;SDS011;24062;47.480;8.768;2022-12-07T05:10:43;1.70;;;0.90;;
38264;SDS011;24062;47.480;8.768;2022-12-07T05:13:10;1.60;;;0.90;;
38264;SDS011;24062;47.480;8.768;2022-12-07T05:15:37;2.20;;;1.10;;
38264;SDS011;24062;47.480;8.768;2022-12-07T05:18:04;2.13;;;1.20;;
38264;SDS011;24062;47.480;8.768;2022-12-07T05:20:31;1.73;;;1.20;;
38264;SDS011;24062;47.480;8.768;2022-12-07T05:22:58;2.20;;;1.20;;
38264;SDS011;24062;47.480;8.768;2022-12-07T05:25:26;1.60;;;0.80;;
38264;SDS011;24062;47.480;8.768;2022-12-07T05:27:54;1.67;;;0.80;;
38264;SDS011;24062;47.480;8.768;2022-12-07T05:30:21;1.80;;;0.90;;
38264;SDS011;24062;47.480;8.768;2022-12-07T05:32:48;1.70;;;0.83;;
38264;SDS011;24062;47.480;8.768;2022-12-07T05:35:15;1.80;;;1.00;;
38264;SDS011;24062;47.480;8.768;2022-12-07T05:37:42;2.27;;;1.10;;
38264;SDS011;24062;47.480;8.768;2022-12-07T05:40:10;1.60;;;0.87;;
38264;SDS011;24062;47.480;8.768;2022-12-07T05:42:39;1.90;;;1.10;;
38264;SDS011;24062;47.480;8.768;2022-12-07T05:45:07;1.47;;;0.70;;
38264;SDS011;24062;47.480;8.768;2022-12-07T05:47:35;1.70;;;1.00;;
38264;SDS011;24062;47.480;8.768;2022-12-07T05:50:03;1.77;;;1.07;;
38264;SDS011;24062;47.480;8.768;2022-12-07T05:52:31;2.10;;;0.90;;
38264;SDS011;24062;47.480;8.768;2022-12-07T05:54:58;1.60;;;0.90;;
38264;SDS011;24062;47.480;8.768;2022-12-07T05:57:25;1.60;;;0.80;;
38264;SDS011;24062;47.480;8.768;2022-12-07T05:59:53;1.80;;;1.10;;
38264;SDS011;24062;47.480;8.768;2022-12-07T06:02:19;2.73;;;0.80;;
38264;SDS011;24062;47.480;8.768;2022-12-07T06:04:46;1.73;;;0.87;;
38264;SDS011;24062;47.480;8.768;2022-12-07T06:07:13;1.80;;;1.10;;
38264;SDS011;24062;47.480;8.768;2022-12-07T06:09:41;3.20;;;1.00;;
38264;SDS011;24062;47.480;8.768;2022-12-07T06:12:09;2.10;;;1.13;;
38264;SDS011;24062;47.480;8.768;2022-12-07T06:14:55;2.83;;;1.13;;
38264;SDS011;24062;47.480;8.768;2022-12-07T06:17:22;2.17;;;1.10;;
38264;SDS011;24062;47.480;8.768;2022-12-07T06:19:49;1.73;;;0.87;;
38264;SDS011;24062;47.480;8.768;2022-12-07T06:22:16;2.80;;;1.13;;
38264;SDS011;24062;47.480;8.768;2022-12-07T06:24:43;4.13;;;1.50;;
38264;SDS011;24062;47.480;8.768;2022-12-07T06:27:10;2.23;;;1.20;;
38264;SDS011;24062;47.480;8.768;2022-12-07T06:29:37;2.00;;;0.90;;
38264;SDS011;24062;47.480;8.768;2022-12-07T06:32:05;2.60;;;1.20;;
38264;SDS011;24062;47.480;8.768;2022-12-07T06:34:32;3.67;;;1.47;;
38264;SDS011;24062;47.480;8.768;2022-12-07T06:36:59;1.60;;;1.00;;
38264;SDS011;24062;47.480;8.768;2022-12-07T06:39:27;3.27;;;1.20;;
38264;SDS011;24062;47.480;8.768;2022-12-07T06:41:54;2.43;;;1.50;;
38264;SDS011;24062;47.480;8.768;2022-12-07T06:44:22;1.90;;;0.90;;
38264;SDS011;24062;47.480;8.768;2022-12-07T06:46:49;2.30;;;1.60;;
38264;SDS011;24062;47.480;8.768;2022-12-07T06:49:18;2.20;;;1.03;;
38264;SDS011;24062;47.480;8.768;2022-12-07T06:51:45;1.70;;;0.90;;
38264;SDS011;24062;47.480;8.768;2022-12-07T06:54:13;2.00;;;1.17;;
38264;SDS011;24062;47.480;8.768;2022-12-07T06:56:41;2.00;;;0.87;;
38264;SDS011;24062;47.480;8.768;2022-12-07T06:59:08;1.97;;;0.80;;
38264;SDS011;24062;47.480;8.768;2022-12-07T07:01:35;3.83;;;1.23;;
38264;SDS011;24062;47.480;8.768;2022-12-07T07:04:02;3.70;;;1.10;;
38264;SDS011;24062;47.480;8.768;2022-12-07T07:06:31;2.27;;;1.17;;
38264;SDS011;24062;47.480;8.768;2022-12-07T07:08:58;2.20;;;1.00;;
38264;SDS011;24062;47.480;8.768;2022-12-07T07:11:25;3.40;;;1.00;;
38264;SDS011;24062;47.480;8.768;2022-12-07T07:13:52;8.80;;;1.10;;
38264;SDS011;24062;47.480;8.768;2022-12-07T07:16:22;1.63;;;0.90;;
38264;SDS011;24062;47.480;8.768;2022-12-07T07:18:49;1.90;;;1.10;;
38264;SDS011;24062;47.480;8.768;2022-12-07T07:21:15;2.70;;;1.10;;
38264;SDS011;24062;47.480;8.768;2022-12-07T07:23:44;1.93;;;0.80;;
38264;SDS011;24062;47.480;8.768;2022-12-07T07:26:11;3.90;;;1.10;;
38264;SDS011;24062;47.480;8.768;2022-12-07T07:28:38;1.90;;;1.07;;
38264;SDS011;24062;47.480;8.768;2022-12-07T07:31:05;1.40;;;0.80;;
38264;SDS011;24062;47.480;8.768;2022-12-07T07:33:32;3.10;;;0.93;;
38264;SDS011;24062;47.480;8.768;2022-12-07T07:35:59;2.17;;;1.00;;
38264;SDS011;24062;47.480;8.768;2022-12-07T07:38:25;1.80;;;0.80;;
38264;SDS011;24062;47.480;8.768;2022-12-07T07:40:54;1.83;;;1.00;;
38264;SDS011;24062;47.480;8.768;2022-12-07T07:43:21;2.30;;;1.20;;
38264;SDS011;24062;47.480;8.768;2022-12-07T07:45:48;2.27;;;1.17;;
38264;SDS011;24062;47.480;8.768;2022-12-07T07:48:15;2.40;;;1.30;;
38264;SDS011;24062;47.480;8.768;2022-12-07T07:50:42;3.30;;;1.27;;
38264;SDS011;24062;47.480;8.768;2022-12-07T07:53:09;2.50;;;1.00;;
38264;SDS011;24062;47.480;8.768;2022-12-07T07:55:36;4.93;;;1.10;;
38264;SDS011;24062;47.480;8.768;2022-12-07T07:58:04;1.93;;;0.90;;
38264;SDS011;24062;47.480;8.768;2022-12-07T08:00:31;2.60;;;1.00;;
38264;SDS011;24062;47.480;8.768;2022-12-07T08:02:58;2.63;;;0.90;;
38264;SDS011;24062;47.480;8.768;2022-12-07T08:05:25;1.80;;;1.00;;
38264;SDS011;24062;47.480;8.768;2022-12-07T08:07:52;2.10;;;1.00;;
38264;SDS011;24062;47.480;8.768;2022-12-07T08:10:19;2.00;;;1.20;;
38264;SDS011;24062;47.480;8.768;2022-12-07T08:12:46;4.07;;;0.90;;
38264;SDS011;24062;47.480;8.768;2022-12-07T08:15:31;1.87;;;1.10;;
38264;SDS011;24062;47.480;8.768;2022-12-07T08:17:58;1.83;;;0.80;;
38264;SDS011;24062;47.480;8.768;2022-12-07T08:20:25;2.73;;;1.00;;
38264;SDS011;24062;47.480;8.768;2022-12-07T08:22:52;2.03;;;1.10;;
38264;SDS011;24062;47.480;8.768;2022-12-07T08:25:19;1.80;;;1.10;;
38264;SDS011;24062;47.480;8.768;2022-12-07T08:27:47;2.03;;;0.70;;
38264;SDS011;24062;47.480;8.768;2022-12-07T08:30:14;2.17;;;1.27;;
38264;SDS011;24062;47.480;8.768;2022-12-07T08:32:43;1.90;;;1.07;;
38264;SDS011;24062;47.480;8.768;2022-12-07T08:35:11;1.73;;;0.87;;
38264;SDS011;24062;47.480;8.768;2022-12-07T08:37:39;2.27;;;1.03;;
38264;SDS011;24062;47.480;8.768;2022-12-07T08:40:06;1.60;;;0.90;;
38264;SDS011;24062;47.480;8.768;2022-12-07T08:42:35;1.87;;;0.90;;
38264;SDS011;24062;47.480;8.768;2022-12-07T08:45:05;1.63;;;0.97;;
38264;SDS011;24062;47.480;8.768;2022-12-07T08:47:34;1.90;;;1.00;;
38264;SDS011;24062;47.480;8.768;2022-12-07T08:50:04;1.67;;;0.90;;
38264;SDS011;24062;47.480;8.768;2022-12-07T08:52:33;2.03;;;1.03;;
38264;SDS011;24062;47.480;8.768;2022-12-07T08:55:01;1.77;;;0.80;;
38264;SDS011;24062;47.480;8.768;2022-12-07T08:57:29;1.60;;;0.83;;
38264;SDS011;24062;47.480;8.768;2022-12-07T08:59:59;2.07;;;1.07;;
38264;SDS011;24062;47.480;8.768;2022-12-07T09:02:26;2.27;;;0.90;;
38264;SDS011;24062;47.480;8.768;2022-12-07T09:04:53;1.60;;;0.90;;
38264;SDS011;24062;47.480;8.768;2022-12-07T09:07:21;2.33;;;0.90;;
38264;SDS011;24062;47.480;8.768;2022-12-07T09:09:48;2.30;;;1.20;;
38264;SDS011;24062;47.480;8.768;2022-12-07T09:12:15;1.53;;;0.93;;
38264;SDS011;24062;47.480;8.768;2022-12-07T09:14:42;3.43;;;1.00;;
38264;SDS011;24062;47.480;8.768;2022-12-07T09:17:09;2.80;;;0.93;;
38264;SDS011;24062;47.480;8.768;2022-12-07T09:19:37;2.47;;;1.07;;
38264;SDS011;24062;47.480;8.768;2022-12-07T09:22:06;1.70;;;1.03;;
38264;SDS011;24062;47.480;8.768;2022-12-07T09:24:35;1.60;;;0.90;;
38264;SDS011;24062;47.480;8.768;2022-12-07T09:27:01;1.60;;;1.00;;
38264;SDS011;24062;47.480;8.768;2022-12-07T09:29:28;1.80;;;1.03;;
38264;SDS011;24062;47.480;8.768;2022-12-07T09:31:55;2.03;;;1.00;;
38264;SDS011;24062;47.480;8.768;2022-12-07T09:34:22;1.60;;;0.73;;
38264;SDS011;24062;47.480;8.768;2022-12-07T09:36:51;2.07;;;1.10;;
38264;SDS011;24062;47.480;8.768;2022-12-07T09:39:18;1.87;;;1.13;;
38264;SDS011;24062;47.480;8.768;2022-12-07T09:41:46;1.70;;;1.00;;
38264;SDS011;24062;47.480;8.768;2022-12-07T09:44:14;1.80;;;0.93;;
38264;SDS011;24062;47.480;8.768;2022-12-07T09:46:46;1.90;;;0.90;;
38264;SDS011;24062;47.480;8.768;2022-12-07T09:49:14;2.57;;;1.27;;
38264;SDS011;24062;47.480;8.768;2022-12-07T09:51:44;1.67;;;0.80;;
38264;SDS011;24062;47.480;8.768;2022-12-07T09:54:12;1.90;;;1.10;;
38264;SDS011;24062;47.480;8.768;2022-12-07T09:56:40;1.70;;;0.90;;
38264;SDS011;24062;47.480;8.768;2022-12-07T09:59:12;1.80;;;0.87;;
38264;SDS011;24062;47.480;8.768;2022-12-07T10:01:42;1.63;;;0.80;;
38264;SDS011;24062;47.480;8.768;2022-12-07T10:04:12;2.80;;;1.10;;
38264;SDS011;24062;47.480;8.768;2022-12-07T10:06:41;1.70;;;1.20;;
38264;SDS011;24062;47.480;8.768;2022-12-07T10:09:09;1.60;;;1.00;;
38264;SDS011;24062;47.480;8.768;2022-12-07T10:14:27;1.70;;;0.80;;
38264;SDS011;24062;47.480;8.768;2022-12-07T10:16:55;1.80;;;0.97;;
38264;SDS011;24062;47.480;8.768;2022-12-07T10:19:23;1.77;;;1.10;;
38264;SDS011;24062;47.480;8.768;2022-12-07T10:22:10;1.77;;;0.80;;
38264;SDS011;24062;47.480;8.768;2022-12-07T10:24:39;1.60;;;0.90;;
38264;SDS011;24062;47.480;8.768;2022-12-07T10:27:16;2.40;;;1.33;;
38264;SDS011;24062;47.480;8.768;2022-12-07T10:29:48;3.77;;;3.40;;
38264;SDS011;24062;47.480;8.768;2022-12-07T10:32:31;4.60;;;4.20;;
38264;SDS011;24062;47.480;8.768;2022-12-07T10:37:46;5.80;;;4.73;;
38264;SDS011;24062;47.480;8.768;2022-12-07T10:40:23;7.60;;;6.80;;
38264;SDS011;24062;47.480;8.768;2022-12-07T10:43:03;8.83;;;6.80;;
38264;SDS011;24062;47.480;8.768;2022-12-07T10:45:34;7.07;;;6.37;;
38264;SDS011;24062;47.480;8.768;2022-12-07T10:48:09;9.53;;;6.57;;
38264;SDS011;24062;47.480;8.768;2022-12-07T10:50:56;10.50;;;7.17;;
38264;SDS011;24062;47.480;8.768;2022-12-07T10:53:41;11.17;;;8.07;;
38264;SDS011;24062;47.480;8.768;2022-12-07T10:56:24;12.90;;;6.90;;
38264;SDS011;24062;47.480;8.768;2022-12-07T10:59:17;8.03;;;7.13;;
38264;SDS011;24062;47.480;8.768;2022-12-07T11:01:54;9.50;;;7.77;;
38264;SDS011;24062;47.480;8.768;2022-12-07T11:04:35;8.53;;;7.10;;
38264;SDS011;24062;47.480;8.768;2022-12-07T11:07:10;10.00;;;7.43;;
38264;SDS011;24062;47.480;8.768;2022-12-07T11:09:47;7.20;;;6.20;;
38264;SDS011;24062;47.480;8.768;2022-12-07T11:12:27;12.63;;;7.33;;
38264;SDS011;24062;47.480;8.768;2022-12-07T11:15:08;8.13;;;6.73;;
38264;SDS011;24062;47.480;8.768;2022-12-07T11:17:45;11.20;;;8.00;;
38264;SDS011;24062;47.480;8.768;2022-12-07T11:20:26;10.53;;;8.10;;
38264;SDS011;24062;47.480;8.768;2022-12-07T11:23:02;9.30;;;6.97;;
38264;SDS011;24062;47.480;8.768;2022-12-07T11:25:39;8.70;;;6.87;;
38264;SDS011;24062;47.480;8.768;2022-12-07T11:28:16;7.70;;;6.83;;
38264;SDS011;24062;47.480;8.768;2022-12-07T11:30:54;7.90;;;6.70;;
38264;SDS011;24062;47.480;8.768;2022-12-07T11:33:32;8.73;;;6.70;;
38264;SDS011;24062;47.480;8.768;2022-12-07T11:36:07;11.80;;;7.10;;
38264;SDS011;24062;47.480;8.768;2022-12-07T11:38:44;11.60;;;6.33;;
38264;SDS011;24062;47.480;8.768;2022-12-07T11:41:16;9.40;;;6.43;;
38264;SDS011;24062;47.480;8.768;2022-12-07T11:43:53;7.13;;;6.40;;
38264;SDS011;24062;47.480;8.768;2022-12-07T11:46:24;7.10;;;6.07;;
38264;SDS011;24062;47.480;8.768;2022-12-07T11:48:57;7.03;;;5.73;;
38264;SDS011;24062;47.480;8.768;2022-12-07T11:51:29;7.37;;;6.13;;
38264;SDS011;24062;47.480;8.768;2022-12-07T11:54:03;7.20;;;4.83;;
38264;SDS011;24062;47.480;8.768;2022-12-07T11:56:38;6.67;;;5.37;;
38264;SDS011;24062;47.480;8.768;2022-12-07T11:59:08;8.03;;;5.70;;
38264;SDS011;24062;47.480;8.768;2022-12-07T12:01:42;6.83;;;5.10;;
38264;SDS011;24062;47.480;8.768;2022-12-07T12:04:23;6.70;;;5.50;;
38264;SDS011;24062;47.480;8.768;2022-12-07T12:06:55;6.33;;;5.40;;
38264;SDS011;24062;47.480;8.768;2022-12-07T12:09:23;7.57;;;5.40;;
38264;SDS011;24062;47.480;8.768;2022-12-07T12:12:05;5.93;;;5.30;;
38264;SDS011;24062;47.480;8.768;2022-12-07T12:14:59;5.57;;;5.07;;
38264;SDS011;24062;47.480;8.768;2022-12-07T12:17:49;5.73;;;5.13;;
38264;SDS011;24062;47.480;8.768;2022-12-07T12:20:39;5.93;;;5.03;;
38264;SDS011;24062;47.480;8.768;2022-12-07T12:23:10;5.73;;;4.80;;
38264;SDS011;24062;47.480;8.768;2022-12-07T12:25:42;5.17;;;4.67;;
38264;SDS011;24062;47.480;8.768;2022-12-07T12:28:19;6.03;;;5.07;;
38264;SDS011;24062;47.480;8.768;2022-12-07T12:31:07;5.70;;;5.00;;
38264;SDS011;24062;47.480;8.768;2022-12-07T12:33:41;4.70;;;4.23;;
38264;SDS011;24062;47.480;8.768;2022-12-07T12:36:22;4.73;;;4.30;;
38264;SDS011;24062;47.480;8.768;2022-12-07T12:38:52;6.57;;;5.03;;
38264;SDS011;24062;47.480;8.768;2022-12-07T12:41:52;4.77;;;4.30;;
38264;SDS011;24062;47.480;8.768;2022-12-07T12:44:39;4.47;;;4.07;;
38264;SDS011;24062;47.480;8.768;2022-12-07T12:50:15;4.00;;;3.60;;
38264;SDS011;24062;47.480;8.768;2022-12-07T12:58:38;4.63;;;4.13;;
38264;SDS011;24062;47.480;8.768;2022-12-07T13:04:14;3.80;;;3.40;;
38264;SDS011;24062;47.480;8.768;2022-12-07T13:06:54;3.67;;;3.20;;
38264;SDS011;24062;47.480;8.768;2022-12-07T13:09:24;3.80;;;3.17;;
38264;SDS011;24062;47.480;8.768;2022-12-07T13:11:56;3.83;;;3.47;;
38264;SDS011;24062;47.480;8.768;2022-12-07T13:20:45;3.13;;;2.83;;
38264;SDS011;24062;47.480;8.768;2022-12-07T13:23:16;3.70;;;3.33;;
38264;SDS011;24062;47.480;8.768;2022-12-07T13:28:41;3.73;;;3.00;;
38264;SDS011;24062;47.480;8.768;2022-12-07T13:31:11;4.10;;;3.23;;
38264;SDS011;24062;47.480;8.768;2022-12-07T13:33:52;3.73;;;3.40;;
38264;SDS011;24062;47.480;8.768;2022-12-07T13:36:20;3.30;;;3.00;;
38264;SDS011;24062;47.480;8.768;2022-12-07T13:38:50;3.50;;;3.20;;
38264;SDS011;24062;47.480;8.768;2022-12-07T13:41:20;3.17;;;2.83;;
38264;SDS011;24062;47.480;8.768;2022-12-07T13:43:49;4.90;;;3.23;;
38264;SDS011;24062;47.480;8.768;2022-12-07T13:46:19;2.70;;;2.20;;
38264;SDS011;24062;47.480;8.768;2022-12-07T13:48:53;3.20;;;2.60;;
38264;SDS011;24062;47.480;8.768;2022-12-07T13:51:22;4.10;;;3.27;;
38264;SDS011;24062;47.480;8.768;2022-12-07T13:53:52;3.77;;;2.97;;
38264;SDS011;24062;47.480;8.768;2022-12-07T13:56:25;2.80;;;2.50;;
38264;SDS011;24062;47.480;8.768;2022-12-07T13:58:57;3.07;;;2.57;;
38264;SDS011;24062;47.480;8.768;2022-12-07T14:01:25;4.10;;;2.63;;
38264;SDS011;24062;47.480;8.768;2022-12-07T14:03:52;2.60;;;2.10;;
38264;SDS011;24062;47.480;8.768;2022-12-07T14:06:22;2.77;;;2.23;;
38264;SDS011;24062;47.480;8.768;2022-12-07T14:09:05;3.03;;;2.50;;
38264;SDS011;24062;47.480;8.768;2022-12-07T14:11:34;2.33;;;1.93;;
38264;SDS011;24062;47.480;8.768;2022-12-07T14:14:02;2.67;;;2.27;;
38264;SDS011;24062;47.480;8.768;2022-12-07T14:16:30;2.60;;;2.10;;
38264;SDS011;24062;47.480;8.768;2022-12-07T14:18:59;2.60;;;2.30;;
38264;SDS011;24062;47.480;8.768;2022-12-07T14:21:29;2.33;;;1.83;;
38264;SDS011;24062;47.480;8.768;2022-12-07T14:24:08;2.63;;;2.23;;
38264;SDS011;24062;47.480;8.768;2022-12-07T14:26:40;2.40;;;1.97;;
38264;SDS011;24062;47.480;8.768;2022-12-07T14:29:28;2.57;;;2.07;;
38264;SDS011;24062;47.480;8.768;2022-12-07T14:31:57;2.30;;;1.90;;
38264;SDS011;24062;47.480;8.768;2022-12-07T14:34:30;2.70;;;2.07;;
38264;SDS011;24062;47.480;8.768;2022-12-07T14:36:57;2.90;;;2.17;;
38264;SDS011;24062;47.480;8.768;2022-12-07T14:39:24;2.40;;;1.90;;
38264;SDS011;24062;47.480;8.768;2022-12-07T14:41:52;2.50;;;1.87;;
38264;SDS011;24062;47.480;8.768;2022-12-07T14:44:20;2.40;;;1.90;;
38264;SDS011;24062;47.480;8.768;2022-12-07T14:46:48;2.27;;;1.90;;
38264;SDS011;24062;47.480;8.768;2022-12-07T14:49:16;3.60;;;1.80;;
38264;SDS011;24062;47.480;8.768;2022-12-07T14:51:43;3.00;;;1.97;;
38264;SDS011;24062;47.480;8.768;2022-12-07T14:54:14;2.90;;;2.40;;
38264;SDS011;24062;47.480;8.768;2022-12-07T14:56:43;2.43;;;1.93;;
38264;SDS011;24062;47.480;8.768;2022-12-07T14:59:15;2.20;;;1.70;;
38264;SDS011;24062;47.480;8.768;2022-12-07T15:01:43;2.50;;;1.97;;
38264;SDS011;24062;47.480;8.768;2022-12-07T15:04:11;2.53;;;2.10;;
38264;SDS011;24062;47.480;8.768;2022-12-07T15:06:38;2.80;;;1.70;;
38264;SDS011;24062;47.480;8.768;2022-12-07T15:09:09;2.40;;;1.70;;
38264;SDS011;24062;47.480;8.768;2022-12-07T15:11:36;3.63;;;2.03;;
38264;SDS011;24062;47.480;8.768;2022-12-07T15:14:03;2.43;;;1.90;;
38264;SDS011;24062;47.480;8.768;2022-12-07T15:16:39;2.40;;;2.00;;
38264;SDS011;24062;47.480;8.768;2022-12-07T15:19:09;3.63;;;1.80;;
38264;SDS011;24062;47.480;8.768;2022-12-07T15:21:39;2.07;;;1.40;;
38264;SDS011;24062;47.480;8.768;2022-12-07T15:24:07;2.07;;;1.40;;
38264;SDS011;24062;47.480;8.768;2022-12-07T15:26:35;3.90;;;1.50;;
38264;SDS011;24062;47.480;8.768;2022-12-07T15:29:02;3.33;;;1.33;;
38264;SDS011;24062;47.480;8.768;2022-12-07T15:31:29;4.23;;;1.87;;
38264;SDS011;24062;47.480;8.768;2022-12-07T15:33:58;3.73;;;1.47;;